Corwith, Iowa
Current Conditions -  °F | °C
As of 4:15 AM on Saturday 20 Dec 2014 (Local Time) from KAXA Reporting Station
Haze Haze  
Wind Chill: 19°   Ceiling: 400
Heat Index: NA   Visibility: 5mi
Dew Point: 30°   Wind: 10mph
Humidity: NA   Direction: 200°SSW
Pressure: 30.14"   Gusts: NA
Location:  42.99°N, 93.96°W
Report Text: KAXA 201015Z AUTO 20009KT 5SM BR BKN004 OVC010 M02/M01 A3014 RMK AO2
Loading
Personal Weather Stations






























Interactive Weather Map New forecast layout! Learn more

10-Day Weather Forecast

Advertisements
Track Severe Weather on mobile